Time;durP1;ratioP1;P1;durP2;ratioP2;P2;SDS_P1;SDS_P2;PMS_P1;PMS_P2;Temp;Humidity;BMP_temperature;BMP_pressure;BME280_temperature;BME280_humidity;BME280_pressure;Samples;Min_cycle;Max_cycle;Signal;HPM_P1;HPM_P2
2023/07/31 00:04:46;;;;;;;4.10;2.70;;;;;;;21.15;62.50;98537.99;223690;182;147140;-64
2023/07/31 00:09:49;;;;;;;3.40;2.60;;;;;;;21.09;62.45;98543.76;223633;183;140242;-64
2023/07/31 00:14:52;;;;;;;4.00;2.20;;;;;;;21.02;62.55;98550.17;223668;183;136405;-63
2023/07/31 00:19:55;;;;;;;3.60;2.40;;;;;;;20.97;62.58;98551.61;223778;183;147137;-65
2023/07/31 00:24:59;;;;;;;3.50;2.70;;;;;;;20.92;62.66;98551.52;223650;183;139215;-63
2023/07/31 00:30:08;;;;;;;5.60;2.60;;;;;;;20.87;62.82;98548.45;223677;183;137131;-67
2023/07/31 00:35:11;;;;;;;4.40;2.50;;;;;;;20.83;62.85;98546.88;223646;183;147630;-66
2023/07/31 00:40:14;;;;;;;3.70;2.70;;;;;;;20.78;62.78;98556.33;223653;183;138378;-65
2023/07/31 00:45:18;;;;;;;3.60;2.50;;;;;;;20.72;63.03;98555.00;223524;183;138482;-65
2023/07/31 00:50:25;;;;;;;8.00;2.70;;;;;;;20.73;63.09;98558.63;223609;182;147602;-65
2023/07/31 00:55:30;;;;;;;4.70;2.80;;;;;;;20.72;62.92;98554.43;223643;183;139318;-64
2023/07/31 01:00:33;;;;;;;6.90;2.70;;;;;;;20.68;63.09;98555.94;223690;183;136969;-64
2023/07/31 01:05:47;;;;;;;4.50;2.90;;;;;;;20.59;63.23;98558.38;223599;183;146982;-67
2023/07/31 01:10:58;;;;;;;5.10;3.20;;;;;;;20.54;63.53;98557.51;223552;182;138586;-66
2023/07/31 01:25:35;;;;;;;6.00;3.20;;;;;;;20.34;64.37;98559.86;220920;194;666145;-65
2023/07/31 01:30:44;;;;;;;5.40;2.90;;;;;;;20.24;64.80;98558.47;223324;186;136744;-65
2023/07/31 01:35:48;;;;;;;4.00;2.90;;;;;;;20.18;65.15;98558.63;223618;184;144039;-64
2023/07/31 01:40:53;;;;;;;6.00;3.10;;;;;;;20.16;65.49;98564.16;223542;184;139651;-65
2023/07/31 01:45:56;;;;;;;3.90;2.80;;;;;;;20.18;65.67;98564.17;223591;183;137743;-65
2023/07/31 01:51:00;;;;;;;6.40;3.40;;;;;;;20.16;65.87;98558.59;223674;183;144264;-63
2023/07/31 01:56:04;;;;;;;5.70;3.20;;;;;;;20.17;66.07;98565.58;223664;183;139139;-62
2023/07/31 02:01:07;;;;;;;5.60;2.90;;;;;;;20.12;66.16;98563.96;223691;184;136205;-63
2023/07/31 02:06:11;;;;;;;3.20;2.70;;;;;;;20.05;66.65;98570.75;223603;184;143906;-64
2023/07/31 02:11:14;;;;;;;4.30;2.80;;;;;;;19.99;67.05;98568.75;223582;184;139706;-65
2023/07/31 02:16:18;;;;;;;3.60;2.70;;;;;;;19.95;67.29;98573.52;223585;184;137296;-65
2023/07/31 02:29:24;;;;;;;4.80;2.70;;;;;;;20.02;67.59;98588.55;222588;189;679427;-66
2023/07/31 02:34:27;;;;;;;6.90;2.60;;;;;;;20.04;67.65;98607.04;223040;188;136167;-66
2023/07/31 02:39:31;;;;;;;5.10;3.00;;;;;;;19.97;67.69;98613.82;223704;184;143880;-67
2023/07/31 02:44:34;;;;;;;7.10;2.60;;;;;;;19.93;67.92;98618.05;223545;184;139046;-66
2023/07/31 02:49:37;;;;;;;4.20;2.60;;;;;;;19.92;68.13;98625.73;223627;184;137150;-67
2023/07/31 02:54:41;;;;;;;7.40;3.10;;;;;;;19.92;68.24;98631.70;223657;183;143862;-63
2023/07/31 02:59:44;;;;;;;4.90;3.30;;;;;;;19.93;68.36;98638.17;223494;184;138347;-64
2023/07/31 03:04:47;;;;;;;3.80;2.90;;;;;;;19.92;68.24;98642.13;223857;182;136518;-65
2023/07/31 03:09:50;;;;;;;86.20;75.20;;;;;;;19.91;68.32;98647.47;223800;182;143881;-64
2023/07/31 03:14:53;;;;;;;4.50;3.30;;;;;;;19.86;68.44;98647.23;223757;182;138883;-67
2023/07/31 03:19:57;;;;;;;4.30;2.90;;;;;;;19.80;68.56;98646.76;223617;182;136596;-66
2023/07/31 03:25:00;;;;;;;64.30;54.60;;;;;;;19.77;68.71;98652.14;223732;182;145126;-66
2023/07/31 03:30:04;;;;;;;6.20;3.40;;;;;;;19.81;68.66;98648.27;223673;182;138924;-65
2023/07/31 03:35:07;;;;;;;5.20;2.70;;;;;;;19.85;68.47;98650.21;223702;182;136405;-62
2023/07/31 03:40:11;;;;;;;5.20;2.60;;;;;;;19.83;68.35;98649.52;223722;182;146335;-67
2023/07/31 03:45:14;;;;;;;3.50;2.60;;;;;;;19.81;68.35;98647.63;223632;182;138370;-65
2023/07/31 03:50:17;;;;;;;3.70;2.40;;;;;;;19.77;68.19;98652.88;223727;182;136745;-63
2023/07/31 03:55:21;;;;;;;8.50;4.60;;;;;;;19.73;68.28;98657.96;223591;179;145151;-61
2023/07/31 04:00:26;;;;;;;3.50;2.80;;;;;;;19.72;68.33;98654.11;223717;182;140843;-63
2023/07/31 04:05:33;;;;;;;4.20;2.50;;;;;;;19.77;68.17;98658.83;223551;182;138762;-62
2023/07/31 04:10:36;;;;;;;5.20;2.60;;;;;;;19.82;68.09;98657.16;223601;182;145280;-62
2023/07/31 04:15:40;;;;;;;5.50;2.60;;;;;;;19.81;67.92;98655.42;223688;182;138231;-61
2023/07/31 04:20:50;;;;;;;6.00;2.80;;;;;;;19.84;67.86;98652.17;223718;182;136197;-61
2023/07/31 04:25:53;;;;;;;3.90;2.50;;;;;;;19.86;67.86;98654.41;223631;182;145242;-61
2023/07/31 04:30:56;;;;;;;4.70;2.40;;;;;;;19.86;67.77;98656.60;223699;182;139332;-62
2023/07/31 04:36:00;;;;;;;3.30;2.30;;;;;;;19.80;67.61;98664.02;223641;182;140088;-61
2023/07/31 04:41:05;;;;;;;4.60;2.30;;;;;;;19.76;67.61;98666.61;223734;182;145711;-60
2023/07/31 04:46:09;;;;;;;4.70;2.60;;;;;;;19.80;67.57;98672.16;223652;183;139336;-63
2023/07/31 04:51:12;;;;;;;4.00;2.50;;;;;;;19.85;67.39;98673.95;223773;182;136497;-66
2023/07/31 04:56:16;;;;;;;3.60;2.60;;;;;;;19.91;67.34;98679.88;223654;182;145726;-63
2023/07/31 05:01:19;;;;;;;4.90;2.90;;;;;;;19.95;67.00;98690.79;223651;182;139184;-61
2023/07/31 05:06:22;;;;;;;4.80;2.60;;;;;;;19.88;66.71;98702.85;223743;182;137683;-64
2023/07/31 05:11:25;;;;;;;6.40;2.60;;;;;;;19.79;66.86;98704.73;223656;182;146387;-63
2023/07/31 05:16:29;;;;;;;9.00;2.40;;;;;;;19.73;67.08;98708.73;223576;182;138404;-60
2023/07/31 05:21:32;;;;;;;5.10;2.30;;;;;;;19.76;67.38;98714.20;223650;182;137938;-59
2023/07/31 05:26:35;;;;;;;4.50;2.40;;;;;;;19.86;67.29;98717.13;223611;182;145291;-65
2023/07/31 05:31:42;;;;;;;4.20;2.50;;;;;;;19.97;67.06;98722.36;223556;182;139865;-63
2023/07/31 05:36:49;;;;;;;5.10;2.50;;;;;;;20.00;66.54;98726.84;223779;182;138961;-66
2023/07/31 05:41:55;;;;;;;5.50;2.70;;;;;;;19.99;66.21;98726.36;223733;182;146274;-66
2023/07/31 05:47:05;;;;;;;4.40;3.00;;;;;;;19.97;66.14;98728.36;223669;182;138894;-66
2023/07/31 05:52:08;;;;;;;5.20;2.80;;;;;;;20.00;66.07;98731.30;223673;183;137143;-67
2023/07/31 05:57:12;;;;;;;5.40;2.70;;;;;;;20.02;65.97;98738.29;223717;183;146609;-66
2023/07/31 06:02:15;;;;;;;3.30;2.20;;;;;;;20.00;65.80;98737.57;223743;182;138136;-63
2023/07/31 06:07:19;;;;;;;3.90;2.40;;;;;;;20.02;65.55;98740.19;223819;182;137446;-65
2023/07/31 06:12:22;;;;;;;4.40;2.10;;;;;;;20.06;65.38;98740.71;223666;182;145736;-67
2023/07/31 06:17:26;;;;;;;3.80;2.80;;;;;;;20.11;65.09;98741.27;223717;182;138953;-67
2023/07/31 06:22:29;;;;;;;5.40;3.10;;;;;;;20.08;64.89;98735.59;223724;182;136776;-68
2023/07/31 06:27:32;;;;;;;8.40;3.70;;;;;;;20.11;65.03;98737.11;223733;183;145601;-68
2023/07/31 06:32:35;;;;;;;8.00;4.20;;;;;;;20.10;64.87;98732.71;223681;182;139411;-65
2023/07/31 06:37:40;;;;;;;5.90;4.00;;;;;;;20.07;65.05;98741.64;223817;182;138104;-66
2023/07/31 06:42:43;;;;;;;6.30;3.50;;;;;;;20.06;64.94;98743.05;223801;183;146826;-69
2023/07/31 06:47:46;;;;;;;5.40;3.60;;;;;;;20.08;65.30;98736.56;223731;182;138417;-66
2023/07/31 06:52:49;;;;;;;5.70;3.70;;;;;;;20.12;64.98;98731.64;223866;183;137579;-69
2023/07/31 06:57:54;;;;;;;8.00;4.40;;;;;;;20.18;64.85;98734.42;222518;182;146265;-65
2023/07/31 07:02:58;;;;;;;7.80;4.40;;;;;;;20.25;64.74;98736.71;222558;182;139742;-63
2023/07/31 07:08:01;;;;;;;5.00;3.30;;;;;;;20.32;64.44;98736.67;223722;182;139599;-67
2023/07/31 07:13:04;;;;;;;3.90;3.00;;;;;;;20.36;63.91;98731.55;223860;182;145111;-66
2023/07/31 07:18:08;;;;;;;4.80;2.80;;;;;;;20.41;63.62;98735.55;223677;182;138680;-61
2023/07/31 07:23:11;;;;;;;4.50;2.90;;;;;;;20.49;63.04;98735.71;223718;182;136735;-61
2023/07/31 07:28:14;;;;;;;4.30;2.50;;;;;;;20.57;61.77;98735.30;223666;183;145676;-64
2023/07/31 07:33:18;;;;;;;5.40;3.10;;;;;;;20.63;61.68;98730.69;223734;182;138755;-62
2023/07/31 07:38:21;;;;;;;4.30;3.00;;;;;;;20.71;61.98;98728.19;223747;182;137071;-61
2023/07/31 07:43:24;;;;;;;7.50;3.30;;;;;;;20.81;61.98;98733.08;223692;182;146197;-61
2023/07/31 07:48:29;;;;;;;5.60;2.70;;;;;;;20.87;61.82;98733.92;223603;182;139553;-61
2023/07/31 07:53:32;;;;;;;6.70;3.50;;;;;;;20.89;61.72;98735.72;223628;182;136608;-63
2023/07/31 07:58:35;;;;;;;6.50;3.00;;;;;;;20.94;61.46;98734.60;223593;183;145706;-62
2023/07/31 08:03:44;;;;;;;6.20;2.70;;;;;;;20.92;61.40;98739.55;223495;182;142260;-61
2023/07/31 08:08:47;;;;;;;7.80;2.90;;;;;;;20.95;61.60;98738.83;223620;183;136791;-60
2023/07/31 08:13:50;;;;;;;25.90;20.30;;;;;;;21.04;61.21;98736.60;223614;182;145986;-64
2023/07/31 08:18:53;;;;;;;4.40;3.40;;;;;;;21.09;60.76;98731.99;223666;182;138124;-63
2023/07/31 08:23:57;;;;;;;6.40;2.40;;;;;;;21.13;60.16;98736.53;223344;183;137396;-61
2023/07/31 08:29:00;;;;;;;8.10;2.60;;;;;;;21.18;59.87;98737.61;223621;182;148103;-61
2023/07/31 08:34:04;;;;;;;5.20;2.70;;;;;;;21.24;59.44;98739.23;223652;182;138137;-62
2023/07/31 08:39:07;;;;;;;5.60;2.80;;;;;;;21.35;59.22;98749.85;223644;182;137243;-62
2023/07/31 08:44:12;;;;;;;7.80;4.20;;;;;;;21.39;58.95;98749.88;223652;182;145570;-63
2023/07/31 08:49:17;;;;;;;7.90;3.20;;;;;;;21.43;59.19;98752.47;223708;182;139370;-61
2023/07/31 08:57:57;;;;;;;6.00;2.90;;;;;;;21.49;58.84;98749.17;220457;190;679914;-59
2023/07/31 09:03:09;;;;;;;4.90;2.60;;;;;;;21.48;58.70;98741.46;222869;188;136769;-60
2023/07/31 09:08:15;;;;;;;10.80;3.00;;;;;;;21.46;58.30;98742.95;223403;185;143519;-61
2023/07/31 09:13:18;;;;;;;16.60;10.50;;;;;;;21.46;58.27;98745.49;223249;185;140135;-64
2023/07/31 09:18:22;;;;;;;8.10;3.10;;;;;;;21.43;58.08;98742.55;223396;185;137239;-65
2023/07/31 09:23:25;;;;;;;6.70;3.00;;;;;;;21.41;58.30;98739.16;223350;186;143133;-62
2023/07/31 09:28:31;;;;;;;4.60;2.60;;;;;;;21.50;58.64;98735.91;223352;185;138809;-62
2023/07/31 09:33:55;;;;;;;8.60;2.80;;;;;;;21.65;58.07;98732.89;223379;185;136396;-64
2023/07/31 09:39:11;;;;;;;8.20;2.50;;;;;;;21.80;57.87;98731.20;223359;185;144187;-62
2023/07/31 09:44:15;;;;;;;5.70;2.40;;;;;;;21.96;57.86;98730.04;223291;185;138842;-62
2023/07/31 09:49:18;;;;;;;5.80;2.70;;;;;;;22.19;57.71;98727.32;223355;185;136365;-62
2023/07/31 09:54:21;;;;;;;18.40;13.80;;;;;;;22.38;56.38;98719.80;223293;185;145776;-62
2023/07/31 09:59:25;;;;;;;6.90;2.50;;;;;;;22.50;55.17;98718.65;223351;185;138373;-64
2023/07/31 10:04:30;;;;;;;8.90;2.60;;;;;;;22.64;54.70;98708.19;223143;181;136598;-64
2023/07/31 10:09:34;;;;;;;5.60;2.20;;;;;;;22.89;54.89;98708.65;223095;184;145299;-64
2023/07/31 10:14:39;;;;;;;7.60;2.40;;;;;;;23.11;52.88;98707.55;223180;185;138400;-64
2023/07/31 10:19:43;;;;;;;7.90;2.30;;;;;;;23.39;53.01;98693.03;223326;184;136456;-64
2023/07/31 10:24:48;;;;;;;5.80;2.30;;;;;;;23.76;51.40;98695.07;223298;218;146581;-64
2023/07/31 10:29:54;;;;;;;4.10;1.90;;;;;;;24.02;50.65;98683.36;223183;185;140582;-64
2023/07/31 10:34:57;;;;;;;3.00;1.70;;;;;;;24.11;49.77;98674.35;223274;184;137230;-64
2023/07/31 10:40:04;;;;;;;5.40;1.90;;;;;;;24.25;47.51;98673.02;223290;184;147745;-63
2023/07/31 10:45:11;;;;;;;4.50;1.80;;;;;;;24.33;47.11;98669.01;223185;184;139777;-64
2023/07/31 10:50:19;;;;;;;4.30;1.90;;;;;;;24.46;46.07;98661.22;223240;207;136125;-61
2023/07/31 10:55:45;;;;;;;3.70;1.70;;;;;;;24.58;45.64;98659.50;223267;214;146330;-62
2023/07/31 11:01:04;;;;;;;7.50;1.90;;;;;;;24.50;45.33;98653.65;223344;194;140452;-62
2023/07/31 11:06:07;;;;;;;4.30;2.00;;;;;;;24.71;45.61;98649.41;223293;184;136843;-62
2023/07/31 11:11:13;;;;;;;4.00;1.90;;;;;;;24.79;44.44;98646.80;223312;184;145239;-62
2023/07/31 11:16:19;;;;;;;5.50;1.70;;;;;;;24.89;44.05;98640.89;223210;186;139078;-63
2023/07/31 11:25:10;;;;;;;7.40;1.80;;;;;;;24.68;43.10;98635.02;221237;194;665689;-63
2023/07/31 11:30:13;;;;;;;7.20;2.00;;;;;;;24.39;43.34;98638.76;223116;187;136410;-64
2023/07/31 11:35:16;;;;;;;4.00;1.40;;;;;;;24.35;44.04;98636.16;223155;187;146765;-63
2023/07/31 11:40:20;;;;;;;3.60;1.80;;;;;;;24.14;44.32;98638.55;223081;187;138378;-61
2023/07/31 11:45:36;;;;;;;2.30;1.50;;;;;;;24.31;44.11;98629.88;223122;187;136103;-61
2023/07/31 11:50:39;;;;;;;5.40;1.70;;;;;;;24.76;43.56;98621.81;223167;186;142383;-61
2023/07/31 11:55:43;;;;;;;5.40;1.60;;;;;;;25.12;42.97;98621.03;223547;184;138301;-61
2023/07/31 12:00:48;;;;;;;8.40;2.00;;;;;;;25.03;42.18;98621.15;223426;184;136594;-60
2023/07/31 12:05:55;;;;;;;3.20;1.50;;;;;;;24.82;42.39;98616.77;223368;184;143663;-60
2023/07/31 12:11:06;;;;;;;5.40;1.80;;;;;;;24.61;42.51;98610.89;223314;184;138411;-61
2023/07/31 12:16:09;;;;;;;12.10;1.70;;;;;;;24.58;42.90;98613.21;223421;184;137032;-62
2023/07/31 12:21:13;;;;;;;3.20;1.50;;;;;;;24.90;41.52;98605.14;223351;184;145501;-62
2023/07/31 12:26:16;;;;;;;5.00;2.30;;;;;;;25.25;40.89;98601.77;223492;184;138301;-64
2023/07/31 12:31:33;;;;;;;29.90;24.10;;;;;;;25.57;41.05;98598.16;223546;183;136827;-65
2023/07/31 12:36:49;;;;;;;4.40;2.00;;;;;;;25.90;40.43;98593.93;223569;183;145986;-63
2023/07/31 12:41:53;;;;;;;4.90;1.60;;;;;;;26.16;38.67;98584.82;223623;182;138777;-63
2023/07/31 12:46:56;;;;;;;4.60;1.70;;;;;;;26.30;37.98;98584.55;223568;182;139498;-62
2023/07/31 12:51:59;;;;;;;2.80;1.80;;;;;;;26.57;38.28;98573.81;223650;182;144968;-63
2023/07/31 12:57:03;;;;;;;5.50;1.70;;;;;;;26.85;38.32;98575.50;223755;183;139014;-63
2023/07/31 13:02:06;;;;;;;3.60;2.00;;;;;;;27.18;37.45;98565.30;223748;181;137245;-63
2023/07/31 13:07:09;;;;;;;4.80;1.60;;;;;;;27.47;37.25;98555.68;223755;183;145763;-63
2023/07/31 13:12:12;;;;;;;2.90;1.60;;;;;;;27.92;36.89;98548.05;223610;182;138675;-63
2023/07/31 14:56:56;;;;;;;4.10;1.80;;;;;;;27.32;34.00;98476.52;221538;191;679541;-63
2023/07/31 15:01:59;;;;;;;3.80;1.50;;;;;;;27.18;33.94;98472.42;223406;182;136312;-63
2023/07/31 15:07:04;;;;;;;5.70;2.10;;;;;;;26.92;33.75;98477.60;223582;183;144916;-62
2023/07/31 15:12:07;;;;;;;3.20;1.80;;;;;;;26.63;34.51;98476.61;223385;182;140544;-62
2023/07/31 15:17:10;;;;;;;4.80;2.50;;;;;;;26.40;35.00;98477.81;223449;182;136940;-63
2023/07/31 15:22:13;;;;;;;38.40;34.40;;;;;;;26.27;35.40;98476.89;223280;183;146225;-62
2023/07/31 15:27:17;;;;;;;6.00;2.30;;;;;;;26.17;36.03;98476.47;223418;182;138934;-65
2023/07/31 15:32:21;;;;;;;5.60;1.60;;;;;;;26.02;35.84;98478.30;223361;182;136658;-63
2023/07/31 15:37:25;;;;;;;2.90;1.40;;;;;;;25.87;36.08;98470.05;223355;182;144379;-65
2023/07/31 15:42:28;;;;;;;14.90;11.90;;;;;;;25.80;36.25;98469.66;223372;182;140204;-66
2023/07/31 15:47:31;;;;;;;57.60;51.30;;;;;;;25.73;36.67;98466.05;223368;183;137586;-62
2023/07/31 15:52:35;;;;;;;19.90;16.00;;;;;;;25.69;37.10;98464.33;223380;183;147174;-63
2023/07/31 15:57:40;;;;;;;5.00;2.00;;;;;;;25.62;37.20;98464.06;223322;182;139000;-61
2023/07/31 16:02:43;;;;;;;5.00;1.70;;;;;;;25.58;37.35;98463.13;223315;182;136275;-61
2023/07/31 16:07:47;;;;;;;3.00;1.40;;;;;;;25.56;37.78;98460.90;223343;182;147205;-59
2023/07/31 16:12:50;;;;;;;4.90;1.70;;;;;;;25.53;37.98;98459.55;223185;183;138552;-61
2023/07/31 16:17:53;;;;;;;5.30;1.80;;;;;;;25.48;38.50;98453.80;223299;182;136679;-61
2023/07/31 16:23:00;;;;;;;35.50;29.40;;;;;;;25.39;38.38;98454.85;223175;182;148505;-61
2023/07/31 16:28:03;;;;;;;10.40;3.30;;;;;;;25.34;38.60;98450.77;222908;182;139694;-60
2023/07/31 16:33:08;;;;;;;5.00;2.30;;;;;;;25.29;38.78;98446.94;223214;182;137298;-59
2023/07/31 16:38:20;;;;;;;8.10;2.10;;;;;;;25.24;38.72;98448.27;223163;183;146959;-59
2023/07/31 16:43:23;;;;;;;5.50;1.70;;;;;;;25.16;39.09;98442.75;223170;182;276021;-59
2023/07/31 16:48:26;;;;;;;4.10;1.70;;;;;;;25.14;39.41;98442.15;223361;183;136897;-59
2023/07/31 16:53:30;;;;;;;4.60;1.70;;;;;;;25.12;39.91;98441.46;223229;182;146476;-59
2023/07/31 16:58:33;;;;;;;4.90;1.70;;;;;;;25.10;39.94;98444.09;223213;183;139411;-60
2023/07/31 17:03:36;;;;;;;7.90;3.10;;;;;;;25.03;39.87;98438.67;223423;183;136738;-60
2023/07/31 17:08:40;;;;;;;7.70;1.80;;;;;;;24.93;39.95;98441.56;223291;183;147177;-60
2023/07/31 17:13:43;;;;;;;5.00;1.80;;;;;;;24.87;40.10;98439.11;223392;182;139344;-61
2023/07/31 17:18:53;;;;;;;4.00;1.40;;;;;;;24.85;40.20;98439.98;223314;183;136874;-61
2023/07/31 17:23:56;;;;;;;6.20;1.70;;;;;;;24.80;40.08;98438.73;223295;182;145894;-61
2023/07/31 17:29:02;;;;;;;18.20;13.60;;;;;;;24.72;40.13;98436.37;223295;179;140201;-62
2023/07/31 17:34:05;;;;;;;5.50;3.30;;;;;;;24.63;40.27;98442.02;223329;182;137437;-61
2023/07/31 17:39:08;;;;;;;6.20;2.00;;;;;;;24.57;40.59;98441.65;223321;183;148241;-60
2023/07/31 17:44:12;;;;;;;9.90;2.10;;;;;;;24.56;40.78;98443.27;223266;182;138956;-61
2023/07/31 17:49:15;;;;;;;2.90;1.50;;;;;;;24.52;40.78;98445.19;223290;182;136852;-60
2023/07/31 17:54:21;;;;;;;5.90;1.90;;;;;;;24.46;40.99;98452.11;223426;182;147457;-60
2023/07/31 17:59:34;;;;;;;15.00;11.40;;;;;;;24.39;41.18;98457.87;223401;183;139071;-61
2023/07/31 18:04:37;;;;;;;7.90;2.80;;;;;;;24.35;41.52;98459.00;223265;183;136734;-60
2023/07/31 18:09:43;;;;;;;3.90;1.80;;;;;;;24.31;41.82;98459.39;223368;182;145993;-60
2023/07/31 18:14:47;;;;;;;16.30;12.70;;;;;;;24.28;42.10;98454.93;223369;183;140124;-62
2023/07/31 18:19:50;;;;;;;4.10;2.10;;;;;;;24.21;42.26;98456.38;223365;182;137668;-61
2023/07/31 18:24:53;;;;;;;33.40;29.20;;;;;;;24.18;42.71;98458.65;223282;179;146675;-60
2023/07/31 18:29:57;;;;;;;4.70;2.30;;;;;;;24.13;43.13;98465.10;223287;183;139149;-61
2023/07/31 18:35:01;;;;;;;7.70;2.50;;;;;;;24.06;43.51;98467.88;223407;183;137314;-62
2023/07/31 18:40:04;;;;;;;7.60;3.80;;;;;;;24.02;43.44;98464.41;223363;182;146289;-63
2023/07/31 18:45:08;;;;;;;5.30;2.20;;;;;;;23.96;43.65;98467.41;223252;182;139999;-64
2023/07/31 18:50:11;;;;;;;4.50;1.50;;;;;;;23.88;43.63;98475.36;223317;182;136998;-65
2023/07/31 18:55:14;;;;;;;100.70;83.60;;;;;;;23.78;43.97;98479.95;223270;183;145906;-63
2023/07/31 19:00:18;;;;;;;56.10;44.20;;;;;;;23.71;44.61;98480.13;223249;182;139577;-61
2023/07/31 19:05:21;;;;;;;8.00;3.80;;;;;;;23.69;44.67;98476.77;223310;182;138399;-63
2023/07/31 19:10:25;;;;;;;5.20;2.30;;;;;;;23.58;46.22;98481.71;223254;183;146353;-63
2023/07/31 19:15:28;;;;;;;6.80;2.00;;;;;;;23.38;47.05;98485.73;223356;182;140168;-62
2023/07/31 19:20:31;;;;;;;5.60;2.30;;;;;;;23.20;48.08;98496.64;223280;183;137355;-60
2023/07/31 19:25:34;;;;;;;9.00;2.50;;;;;;;23.03;48.74;98499.11;223338;182;145601;-61
2023/07/31 19:30:39;;;;;;;6.00;2.90;;;;;;;22.87;48.46;98502.00;223352;182;140514;-61
2023/07/31 19:35:42;;;;;;;7.60;2.80;;;;;;;22.74;49.31;98503.11;223310;182;138090;-62
2023/07/31 19:40:45;;;;;;;5.60;2.80;;;;;;;22.59;50.29;98508.25;223384;183;146253;-62
2023/07/31 19:45:56;;;;;;;7.70;2.80;;;;;;;22.45;50.68;98512.05;223279;183;139658;-61
2023/07/31 19:51:18;;;;;;;8.10;2.80;;;;;;;22.33;50.94;98512.77;223412;182;138412;-63
2023/07/31 19:56:21;;;;;;;6.50;2.80;;;;;;;22.25;50.83;98510.80;223455;183;146723;-61
2023/07/31 20:01:24;;;;;;;6.30;2.80;;;;;;;22.17;51.27;98508.81;223377;183;139015;-62
2023/07/31 20:06:28;;;;;;;5.30;2.60;;;;;;;22.09;51.89;98501.89;223320;182;139061;-61
2023/07/31 20:11:31;;;;;;;8.70;3.10;;;;;;;21.97;52.59;98497.64;223313;182;145613;-66
2023/07/31 20:16:38;;;;;;;11.70;3.20;;;;;;;21.86;53.03;98494.24;223392;183;139572;-64
2023/07/31 20:21:42;;;;;;;7.40;2.70;;;;;;;21.75;53.74;98484.73;223353;182;137637;-63
2023/07/31 20:26:45;;;;;;;8.80;3.50;;;;;;;21.63;54.09;98476.42;223444;183;147548;-62
2023/07/31 20:31:48;;;;;;;4.90;2.90;;;;;;;21.53;54.59;98466.23;223385;183;139005;-62
2023/07/31 20:36:51;;;;;;;10.40;3.50;;;;;;;21.45;55.11;98458.59;223320;182;137324;-63
2023/07/31 20:41:55;;;;;;;7.60;3.30;;;;;;;21.35;55.69;98462.70;223303;182;146581;-60
2023/07/31 20:46:58;;;;;;;11.10;3.80;;;;;;;21.23;56.37;98471.31;223379;182;138894;-63
2023/07/31 20:52:01;;;;;;;13.80;3.80;;;;;;;21.15;56.74;98469.31;223273;182;138547;-64
2023/07/31 20:57:05;;;;;;;13.10;4.20;;;;;;;21.10;57.26;98467.96;223291;182;145949;-62
2023/07/31 21:02:09;;;;;;;10.20;3.50;;;;;;;21.01;57.72;98462.39;223430;183;140502;-64
2023/07/31 21:07:14;;;;;;;12.60;4.20;;;;;;;20.94;57.82;98457.07;223348;180;137037;-62
2023/07/31 21:12:18;;;;;;;11.90;4.40;;;;;;;20.88;58.11;98445.36;223311;183;147366;-64
2023/07/31 21:17:21;;;;;;;15.10;4.20;;;;;;;20.82;58.49;98438.46;223347;183;140740;-62
2023/07/31 21:22:25;;;;;;;12.20;4.50;;;;;;;20.77;58.79;98433.23;223346;183;137697;-64
2023/07/31 21:27:28;;;;;;;10.70;4.60;;;;;;;20.70;59.04;98429.92;223221;178;146546;-64
2023/07/31 21:32:32;;;;;;;10.20;4.20;;;;;;;20.63;59.73;98429.86;223257;183;139719;-61
2023/07/31 21:37:38;;;;;;;11.60;4.60;;;;;;;20.57;60.24;98427.63;223308;183;137465;-61
2023/07/31 21:42:41;;;;;;;11.10;5.00;;;;;;;20.50;60.75;98420.54;223335;183;147928;-63
2023/07/31 21:47:45;;;;;;;13.40;4.50;;;;;;;20.44;60.97;98408.88;223236;183;139522;-63
2023/07/31 21:52:51;;;;;;;10.10;4.20;;;;;;;20.37;61.07;98408.46;223312;183;138120;-65
2023/07/31 21:57:55;;;;;;;11.60;4.40;;;;;;;20.31;61.33;98401.36;223357;182;145809;-61
2023/07/31 22:02:58;;;;;;;11.00;4.30;;;;;;;20.23;61.63;98395.77;223284;182;139895;-61
2023/07/31 22:08:01;;;;;;;8.20;3.80;;;;;;;20.14;61.90;98391.05;223387;183;139696;-62
2023/07/31 22:13:04;;;;;;;10.70;3.90;;;;;;;20.04;61.88;98387.34;223362;182;146562;-62
2023/07/31 22:18:08;;;;;;;11.60;4.10;;;;;;;19.97;62.41;98383.55;223330;182;138962;-64
2023/07/31 22:23:11;;;;;;;6.40;3.40;;;;;;;19.88;62.39;98375.15;223377;182;137189;-65
2023/07/31 22:28:14;;;;;;;11.70;4.00;;;;;;;19.83;62.76;98369.35;223323;182;146273;-61
2023/07/31 22:33:23;;;;;;;10.30;3.70;;;;;;;19.84;62.96;98366.89;223498;182;139682;-61
2023/07/31 22:38:26;;;;;;;8.80;3.70;;;;;;;19.84;63.25;98366.01;223470;183;137240;-62
2023/07/31 22:43:29;;;;;;;11.00;3.90;;;;;;;19.82;63.29;98361.05;223446;182;145734;-63
2023/07/31 23:25:55;;;;;;;7.00;3.80;;;;;;;19.30;64.90;98353.42;221115;193;667008;-61
2023/07/31 23:31:02;;;;;;;11.80;3.80;;;;;;;19.24;65.19;98353.02;222816;187;137212;-61
2023/07/31 23:36:11;;;;;;;8.80;3.50;;;;;;;19.25;65.13;98351.70;223659;180;144004;-60
2023/07/31 23:41:16;;;;;;;10.10;3.80;;;;;;;19.24;65.04;98350.86;223582;180;138998;-62
2023/07/31 23:46:20;;;;;;;7.30;4.00;;;;;;;19.20;65.14;98355.13;223713;181;137435;-62
2023/07/31 23:51:32;;;;;;;7.00;3.70;;;;;;;19.17;65.28;98349.44;223576;181;143639;-61
2023/07/31 23:56:52;;;;;;;10.00;3.90;;;;;;;19.14;65.47;98348.16;223594;180;139034;-62
